Time;durP1;ratioP1;P1;durP2;ratioP2;P2;SDS_P1;SDS_P2;PMS_P1;PMS_P2;Temp;Humidity;BMP_temperature;BMP_pressure;BME280_temperature;BME280_humidity;BME280_pressure;Samples;Min_cycle;Max_cycle;Signal;HPM_P1;HPM_P2
2022/06/22 00:02:17;;;;;;;1.50;1.00;;;;;;;19.86;nan;99933.28;4971818;28;20148;-69
2022/06/22 00:04:54;;;;;;;1.20;0.80;;;;;;;19.71;nan;99939.06;4978476;28;20046;-69
2022/06/22 00:07:41;;;;;;;1.67;1.00;;;;;;;19.60;nan;99945.13;4987548;28;20045;-69
2022/06/22 00:10:21;;;;;;;1.23;1.00;;;;;;;19.49;nan;99951.25;4986144;28;20113;-69
2022/06/22 00:12:55;;;;;;;1.60;1.08;;;;;;;19.39;nan;99942.91;4987033;28;20065;-69
2022/06/22 00:15:38;;;;;;;1.75;1.10;;;;;;;19.28;nan;99957.88;4982594;28;20126;-69
2022/06/22 00:18:37;;;;;;;2.25;1.30;;;;;;;19.22;nan;99959.59;4982533;28;20031;-69
2022/06/22 00:21:15;;;;;;;1.35;1.00;;;;;;;19.19;nan;99946.63;4982943;28;20035;-69
2022/06/22 00:23:44;;;;;;;2.25;1.25;;;;;;;19.19;nan;99949.31;4987103;28;20067;-69
2022/06/22 00:26:36;;;;;;;4.72;1.40;;;;;;;19.20;nan;99950.13;4986612;28;20062;-69
2022/06/22 00:29:05;;;;;;;2.47;1.40;;;;;;;19.15;nan;99948.13;4989011;28;20061;-69
2022/06/22 00:31:40;;;;;;;1.83;1.20;;;;;;;19.16;nan;99940.91;4987544;28;20361;-69
2022/06/22 00:34:19;;;;;;;2.10;1.10;;;;;;;19.15;nan;99944.63;4985487;28;20166;-69
2022/06/22 00:36:55;;;;;;;2.38;1.52;;;;;;;19.13;nan;99934.13;4986887;28;20049;-69
2022/06/22 00:39:29;;;;;;;1.55;1.10;;;;;;;19.10;nan;99945.28;4984233;28;20038;-69
2022/06/22 00:42:14;;;;;;;1.50;1.10;;;;;;;19.03;nan;99936.50;4987769;28;20038;-69
2022/06/22 00:44:55;;;;;;;1.67;1.25;;;;;;;18.94;nan;99927.09;4986534;28;20066;-69
2022/06/22 00:47:39;;;;;;;2.50;1.40;;;;;;;18.84;nan;99920.38;4985907;28;20085;-70
2022/06/22 00:50:13;;;;;;;1.83;1.30;;;;;;;18.78;nan;99905.22;4980392;28;20181;-69
2022/06/22 00:52:43;;;;;;;2.88;1.30;;;;;;;18.72;nan;99903.38;4986403;28;20403;-69
2022/06/22 00:55:26;;;;;;;1.80;1.20;;;;;;;18.68;nan;99902.16;4987231;28;20416;-68
2022/06/22 00:58:22;;;;;;;1.60;1.00;;;;;;;18.59;nan;99914.19;4980489;28;20049;-68
2022/06/22 01:01:07;;;;;;;1.50;1.10;;;;;;;18.49;nan;99898.63;4986347;28;20069;-69
2022/06/22 01:03:46;;;;;;;1.90;1.10;;;;;;;18.45;nan;99900.13;4986031;28;20038;-69
2022/06/22 01:06:20;;;;;;;1.13;0.90;;;;;;;18.40;nan;99899.94;4987334;28;20145;-69
2022/06/22 01:09:15;;;;;;;2.33;1.30;;;;;;;18.36;nan;99906.78;4986842;28;20042;-69
2022/06/22 01:12:17;;;;;;;1.90;1.00;;;;;;;18.30;nan;99916.50;4966898;28;20096;-68
2022/06/22 01:15:12;;;;;;;2.05;1.10;;;;;;;18.24;nan;99912.03;4986414;28;20511;-69
2022/06/22 01:18:06;;;;;;;1.58;1.10;;;;;;;18.22;nan;99906.06;4986585;28;20059;-68
2022/06/22 01:20:31;;;;;;;2.05;1.10;;;;;;;18.25;nan;99900.25;4985566;28;20042;-68
2022/06/22 01:23:04;;;;;;;2.30;1.05;;;;;;;18.31;nan;99902.09;4986231;28;20507;-69
2022/06/22 01:25:53;;;;;;;1.90;1.30;;;;;;;18.39;nan;99892.97;4986085;28;20491;-69
2022/06/22 01:28:19;;;;;;;1.52;1.20;;;;;;;18.42;nan;99882.66;4989086;28;20046;-68
2022/06/22 01:30:49;;;;;;;1.60;1.30;;;;;;;18.43;nan;99881.59;4986802;28;20038;-69
2022/06/22 01:33:23;;;;;;;2.50;1.55;;;;;;;18.42;nan;99879.97;4986269;28;20076;-68
2022/06/22 01:35:52;;;;;;;2.42;1.30;;;;;;;18.42;nan;99881.81;4986935;28;20582;-69
2022/06/22 01:38:24;;;;;;;1.30;1.15;;;;;;;18.43;nan;99875.44;4986945;28;20057;-69
2022/06/22 01:41:05;;;;;;;1.90;1.30;;;;;;;18.46;nan;99881.16;4985878;28;20066;-68
2022/06/22 01:43:54;;;;;;;1.50;1.07;;;;;;;18.49;nan;99881.75;4985261;28;20043;-68
2022/06/22 01:46:40;;;;;;;3.03;1.40;;;;;;;18.49;nan;99885.25;4986912;28;20042;-69
2022/06/22 01:49:13;;;;;;;1.50;1.20;;;;;;;18.50;nan;99892.25;4986689;28;20041;-68
2022/06/22 01:51:46;;;;;;;1.77;1.30;;;;;;;18.48;nan;99897.00;4985616;28;20042;-68
2022/06/22 01:54:21;;;;;;;2.35;1.40;;;;;;;18.43;nan;99896.84;4986916;28;20125;-69
2022/06/22 01:56:58;;;;;;;1.73;1.33;;;;;;;18.41;nan;99894.38;4986764;28;20574;-69
2022/06/22 01:59:37;;;;;;;2.45;1.27;;;;;;;18.40;nan;99899.94;4985528;28;20051;-69
2022/06/22 02:02:06;;;;;;;2.95;1.50;;;;;;;18.34;nan;99898.97;4981578;28;20634;-68
2022/06/22 02:04:56;;;;;;;2.13;1.30;;;;;;;18.31;nan;99906.63;4987774;28;20050;-68
2022/06/22 02:07:44;;;;;;;2.35;1.23;;;;;;;18.27;nan;99908.91;4985926;28;20057;-69
2022/06/22 02:10:27;;;;;;;3.67;1.85;;;;;;;18.15;nan;99919.47;4985766;28;20125;-69
2022/06/22 02:12:59;;;;;;;2.75;1.60;;;;;;;18.08;nan;99926.72;4989804;28;20081;-68
2022/06/22 02:15:39;;;;;;;3.22;1.70;;;;;;;18.05;nan;99924.50;4989313;28;20038;-68
2022/06/22 02:18:24;;;;;;;3.15;1.50;;;;;;;18.04;nan;99920.16;4985892;28;20038;-68
2022/06/22 02:20:49;;;;;;;2.78;1.20;;;;;;;18.03;nan;99924.69;4989604;28;20408;-68
2022/06/22 02:23:35;;;;;;;1.33;1.10;;;;;;;18.00;nan;99922.47;4987779;28;20282;-69
2022/06/22 02:26:26;;;;;;;1.45;1.20;;;;;;;17.99;nan;99922.66;4983229;28;20062;-68
2022/06/22 02:28:52;;;;;;;;;;;;;;;17.94;nan;99917.97;4993570;28;20057;-68
2022/06/22 02:31:20;;;;;;;2.35;1.23;;;;;;;17.93;nan;99918.19;4989804;28;20382;-68
2022/06/22 02:33:49;;;;;;;1.30;1.10;;;;;;;17.88;nan;99918.84;4986716;28;20134;-68
2022/06/22 02:36:15;;;;;;;1.52;1.10;;;;;;;17.81;nan;99918.06;4988533;28;20057;-69
2022/06/22 02:38:44;;;;;;;1.48;1.02;;;;;;;17.75;nan;99916.19;4989801;28;20042;-68
2022/06/22 02:46:42;;;;;;;2.25;1.00;;;;;;;17.57;nan;99874.94;4989213;28;20053;-68
2022/06/22 02:49:16;;;;;;;1.30;0.90;;;;;;;17.54;nan;99870.03;4986022;28;20407;-68
2022/06/22 02:51:45;;;;;;;1.63;1.08;;;;;;;17.50;nan;99879.50;4991134;28;20038;-69
2022/06/22 02:54:36;;;;;;;1.75;1.20;;;;;;;17.41;nan;99873.56;4982398;28;20450;-69
2022/06/22 02:57:20;;;;;;;1.83;1.17;;;;;;;17.36;nan;99868.06;4980423;28;20142;-69
2022/06/22 02:59:48;;;;;;;2.83;1.20;;;;;;;17.32;nan;99866.81;4987852;28;20036;-69
2022/06/22 03:02:13;;;;;;;1.65;1.30;;;;;;;17.30;nan;99860.06;4989096;28;20038;-68
2022/06/22 03:04:41;;;;;;;1.80;1.30;;;;;;;17.32;nan;99853.47;4988033;28;20063;-68
2022/06/22 03:07:07;;;;;;;2.00;1.30;;;;;;;17.32;nan;99852.66;4987700;28;20039;-69
2022/06/22 03:09:33;;;;;;;1.70;1.40;;;;;;;17.32;nan;99845.44;4988647;28;20038;-69
2022/06/22 03:12:00;;;;;;;2.63;1.42;;;;;;;17.36;nan;99848.53;4988564;28;20054;-69
2022/06/22 03:14:33;;;;;;;2.47;1.40;;;;;;;17.37;nan;99844.81;4984391;28;20044;-68
2022/06/22 03:17:11;;;;;;;2.78;1.50;;;;;;;17.43;nan;99843.97;4988850;28;20537;-68
2022/06/22 03:19:46;;;;;;;2.95;1.95;;;;;;;17.53;nan;99848.84;4988314;28;20047;-68
2022/06/22 03:22:43;;;;;;;3.15;1.58;;;;;;;17.63;nan;99854.56;4987547;28;20041;-69
2022/06/22 03:25:22;;;;;;;2.72;1.30;;;;;;;17.66;nan;99869.34;4985046;28;20064;-68
2022/06/22 03:27:50;;;;;;;2.67;1.48;;;;;;;17.64;nan;99874.94;4991134;28;20589;-69
2022/06/22 03:30:43;;;;;;;3.15;1.52;;;;;;;17.62;nan;99883.16;4988283;28;20092;-69
2022/06/22 03:33:12;;;;;;;2.65;1.60;;;;;;;17.66;nan;99891.53;4983597;28;20415;-68
2022/06/22 03:35:56;;;;;;;2.65;1.40;;;;;;;17.72;nan;99897.91;4987107;28;20034;-69
2022/06/22 03:38:26;;;;;;;2.53;1.63;;;;;;;17.73;nan;99908.41;4989150;28;20416;-69
2022/06/22 03:40:58;;;;;;;1.90;1.40;;;;;;;17.73;nan;99912.91;4989012;28;20039;-70
2022/06/22 03:43:31;;;;;;;2.60;1.40;;;;;;;17.70;nan;99922.19;4985986;28;20045;-69
2022/06/22 03:46:11;;;;;;;1.40;1.10;;;;;;;17.64;nan;99931.06;4987674;28;20060;-68
2022/06/22 03:48:53;;;;;;;2.17;1.30;;;;;;;17.56;nan;99934.78;4987299;28;20061;-69
2022/06/22 03:51:27;;;;;;;1.80;1.20;;;;;;;17.54;nan;99933.34;4988707;28;20041;-69
2022/06/22 03:54:32;;;;;;;2.25;1.23;;;;;;;17.54;nan;99931.53;4988114;28;20056;-68
2022/06/22 03:57:01;;;;;;;3.35;1.40;;;;;;;17.59;nan;99929.03;4986797;28;20034;-69
2022/06/22 03:59:27;;;;;;;2.08;1.30;;;;;;;17.67;nan;99935.16;4988410;28;20046;-69
2022/06/22 04:01:56;;;;;;;4.30;2.08;;;;;;;17.72;nan;99932.66;4986740;28;20042;-69
2022/06/22 04:04:23;;;;;;;1.95;1.23;;;;;;;17.72;nan;99935.34;4986201;28;20516;-69
2022/06/22 04:06:52;;;;;;;2.08;1.30;;;;;;;17.77;nan;99935.53;4987470;28;20042;-69
2022/06/22 04:09:21;;;;;;;2.15;1.08;;;;;;;17.77;nan;99930.19;4988019;28;20372;-69
2022/06/22 04:12:04;;;;;;;1.67;1.17;;;;;;;17.76;nan;99918.66;4983536;28;20078;-69
2022/06/22 04:15:11;;;;;;;1.83;1.30;;;;;;;17.82;nan;99919.69;4987413;28;20060;-68
2022/06/22 04:17:42;;;;;;;1.35;1.00;;;;;;;17.95;nan;99932.19;4945143;28;20087;-69
2022/06/22 04:20:22;;;;;;;1.35;1.15;;;;;;;17.99;nan;99928.03;4945221;28;20078;-69
2022/06/22 04:22:55;;;;;;;2.17;1.20;;;;;;;18.04;nan;99921.00;4968728;28;20246;-69
2022/06/22 04:25:47;;;;;;;2.17;1.45;;;;;;;18.08;nan;99915.22;4987437;28;20038;-69
2022/06/22 04:28:14;;;;;;;2.05;1.50;;;;;;;18.13;nan;99928.75;4977616;28;20100;-69
2022/06/22 04:30:49;;;;;;;2.83;1.30;;;;;;;18.17;nan;99928.13;4986139;28;20312;-68
2022/06/22 04:33:22;;;;;;;1.80;1.30;;;;;;;18.22;nan;99930.16;4985636;28;20034;-69
2022/06/22 04:36:08;;;;;;;2.05;1.08;;;;;;;18.28;nan;99941.84;4987745;28;20480;-69
2022/06/22 04:38:42;;;;;;;2.08;1.05;;;;;;;18.33;nan;99932.13;4986053;28;20038;-69
2022/06/22 04:41:26;;;;;;;1.58;1.20;;;;;;;18.37;nan;99937.84;4987057;28;20044;-69
2022/06/22 04:43:54;;;;;;;1.88;1.02;;;;;;;18.45;nan;99942.97;4986882;28;20046;-69
2022/06/22 04:46:27;;;;;;;1.60;1.20;;;;;;;18.54;nan;99946.16;4987554;28;20494;-69
2022/06/22 04:48:56;;;;;;;1.30;0.80;;;;;;;18.59;nan;99946.34;4986693;28;20050;-69
2022/06/22 04:51:28;;;;;;;1.35;1.10;;;;;;;18.65;nan;99937.44;4987313;28;20038;-69
2022/06/22 04:53:56;;;;;;;;;;;;;;;18.71;nan;99935.72;4987045;28;20050;-69
2022/06/22 04:56:33;;;;;;;1.48;0.90;;;;;;;18.91;nan;99941.78;4988035;28;20449;-69
2022/06/22 04:58:59;;;;;;;1.35;1.00;;;;;;;19.01;nan;99935.91;4986129;28;20069;-69
2022/06/22 05:01:35;;;;;;;1.48;1.08;;;;;;;19.03;nan;99931.94;4987738;28;20522;-69
2022/06/22 05:04:23;;;;;;;1.98;0.98;;;;;;;19.07;nan;99948.41;4987543;28;20034;-69
2022/06/22 05:06:55;;;;;;;1.40;0.90;;;;;;;19.14;nan;99951.84;4988126;28;20038;-69
2022/06/22 05:09:28;;;;;;;1.10;0.90;;;;;;;19.21;nan;99963.31;4983287;28;20126;-69
2022/06/22 05:11:54;;;;;;;1.83;1.20;;;;;;;19.31;nan;99971.66;4987169;28;20129;-69
2022/06/22 05:14:27;;;;;;;2.08;1.23;;;;;;;19.41;nan;99973.81;4987266;28;20034;-69
2022/06/22 05:17:01;;;;;;;1.30;1.00;;;;;;;19.49;nan;99986.91;4972500;28;20109;-69
2022/06/22 05:19:54;;;;;;;1.83;1.20;;;;;;;19.57;nan;99990.34;4991543;28;20054;-69
2022/06/22 05:22:19;;;;;;;1.85;1.10;;;;;;;19.75;nan;99990.38;4980797;28;20402;-69
2022/06/22 05:24:53;;;;;;;1.65;1.05;;;;;;;19.89;nan;99997.22;4980605;28;20038;-69
2022/06/22 05:27:24;;;;;;;1.27;0.90;;;;;;;20.03;nan;99987.13;4988721;28;20410;-69
2022/06/22 05:29:56;;;;;;;1.00;0.80;;;;;;;20.17;nan;99989.63;4969098;28;20487;-69
2022/06/22 05:32:35;;;;;;;0.98;0.80;;;;;;;20.31;nan;99993.78;4988388;28;20050;-69
2022/06/22 05:35:07;;;;;;;1.98;1.10;;;;;;;20.43;nan;100002.69;4989749;28;20033;-69
2022/06/22 05:37:37;;;;;;;1.50;1.10;;;;;;;20.47;nan;100005.72;4992273;28;20085;-69
2022/06/22 05:40:03;;;;;;;2.38;0.90;;;;;;;20.54;nan;100007.25;4989933;28;20129;-69
2022/06/22 05:42:31;;;;;;;2.03;1.20;;;;;;;20.58;nan;100002.28;4987607;28;20038;-69
2022/06/22 05:44:57;;;;;;;1.25;0.95;;;;;;;20.62;nan;99997.25;4993946;28;20062;-69
2022/06/22 05:47:29;;;;;;;2.13;1.25;;;;;;;20.65;nan;99999.50;4987869;28;20042;-69
2022/06/22 05:50:00;;;;;;;1.58;1.00;;;;;;;20.77;nan;100001.13;4990002;28;20062;-69
2022/06/22 05:52:30;;;;;;;1.88;1.13;;;;;;;20.87;nan;100013.19;4992572;28;20096;-72
2022/06/22 05:55:02;;;;;;;1.83;1.20;;;;;;;21.01;nan;100017.28;4976140;28;20085;-69
2022/06/22 05:57:39;;;;;;;1.70;0.93;;;;;;;21.16;nan;100009.56;4992746;28;20391;-69
2022/06/22 06:00:12;;;;;;;1.23;0.95;;;;;;;21.33;nan;100001.63;4993607;28;20438;-69
2022/06/22 06:02:45;;;;;;;2.40;1.10;;;;;;;21.49;nan;100007.34;4992601;28;20074;-69
2022/06/22 06:05:49;;;;;;;1.67;1.00;;;;;;;21.73;nan;100000.06;4993295;28;20064;-69
2022/06/22 06:08:35;;;;;;;1.25;0.80;;;;;;;22.21;nan;100007.72;4933461;28;20190;-70
2022/06/22 06:11:02;;;;;;;1.10;0.90;;;;;;;22.51;nan;100001.28;4984063;28;20030;-69
2022/06/22 06:13:35;;;;;;;1.83;0.95;;;;;;;22.82;nan;100001.78;4993992;28;20038;-69
2022/06/22 06:16:02;;;;;;;1.92;1.17;;;;;;;23.23;nan;100000.53;4994816;28;20022;-70
2022/06/22 06:18:31;;;;;;;1.17;0.88;;;;;;;23.66;nan;99998.94;4993600;28;20043;-70
2022/06/22 06:21:22;;;;;;;3.35;1.40;;;;;;;23.87;nan;99996.53;4994960;28;20041;-70
2022/06/22 06:24:00;;;;;;;2.50;1.30;;;;;;;24.05;nan;99987.25;4982279;28;20133;-70
2022/06/22 06:29:56;;;;;;;3.58;1.55;;;;;;;24.71;nan;99990.59;4986150;28;20114;-70
2022/06/22 06:32:37;;;;;;;2.17;1.40;;;;;;;25.00;nan;99995.66;4992348;28;20598;-70
2022/06/22 06:35:22;;;;;;;3.90;1.42;;;;;;;25.41;nan;99996.78;4992565;28;20026;-70
2022/06/22 06:38:14;;;;;;;2.37;1.40;;;;;;;25.72;nan;100002.31;4995062;28;20034;-70
2022/06/22 06:40:48;;;;;;;2.30;1.30;;;;;;;25.82;nan;100006.97;4992821;28;20041;-70
2022/06/22 06:43:19;;;;;;;2.42;1.40;;;;;;;26.10;nan;99994.06;4997479;28;20522;-70
2022/06/22 06:45:44;;;;;;;2.08;1.13;;;;;;;26.33;nan;99993.56;4985381;28;20057;-70
2022/06/22 06:48:17;;;;;;;2.85;1.50;;;;;;;26.56;nan;99996.88;4991151;28;20117;-70
2022/06/22 06:50:47;;;;;;;2.60;1.30;;;;;;;27.03;nan;99993.84;4992248;28;20113;-70
2022/06/22 06:53:22;;;;;;;2.85;1.30;;;;;;;27.35;nan;99992.72;5007430;28;20041;-70
2022/06/22 06:55:58;;;;;;;2.58;1.50;;;;;;;27.72;nan;99994.19;4985094;28;20031;-70
2022/06/22 06:58:30;;;;;;;2.50;1.10;;;;;;;28.23;nan;99998.56;4991167;28;20515;-70
2022/06/22 07:00:56;;;;;;;1.90;1.23;;;;;;;28.48;nan;99994.88;4997143;28;20426;-70
2022/06/22 07:03:26;;;;;;;1.73;1.20;;;;;;;28.26;nan;99989.84;4995083;28;20116;-70
2022/06/22 07:05:52;;;;;;;4.20;1.83;;;;;;;28.21;nan;99984.44;4999570;28;20030;-71
2022/06/22 07:08:20;;;;;;;2.78;1.35;;;;;;;28.74;nan;99992.75;4991467;28;20554;-70
2022/06/22 07:11:04;;;;;;;3.30;1.35;;;;;;;29.20;nan;99986.91;4992462;28;20034;-71
2022/06/22 07:13:44;;;;;;;2.08;1.25;;;;;;;29.76;nan;99999.06;4993410;28;20129;-71
2022/06/22 07:16:15;;;;;;;2.50;1.25;;;;;;;30.43;nan;99999.75;4975891;28;20491;-71
2022/06/22 07:18:47;;;;;;;;;;;;;;;30.54;nan;100002.31;4993793;28;20027;-71
2022/06/22 07:21:22;;;;;;;1.92;1.00;;;;;;;30.50;nan;99993.91;4993876;28;19925;-70
2022/06/22 07:23:55;;;;;;;2.22;1.10;;;;;;;30.21;nan;99994.88;4986282;28;20027;-71
2022/06/22 07:26:29;;;;;;;4.05;1.08;;;;;;;29.89;nan;100003.81;4991862;28;20034;-70
2022/06/22 07:29:27;;;;;;;1.55;0.93;;;;;;;29.79;nan;100009.38;4995312;28;20046;-70
2022/06/22 07:31:59;;;;;;;2.08;1.15;;;;;;;29.90;nan;100001.88;4984345;28;20037;-70
2022/06/22 07:34:35;;;;;;;3.47;1.00;;;;;;;29.50;nan;99999.34;4999294;28;20392;-70
2022/06/22 07:37:17;;;;;;;1.63;1.05;;;;;;;29.23;nan;100013.56;5005044;28;20034;-70
2022/06/22 07:39:52;;;;;;;2.42;1.10;;;;;;;29.48;nan;100017.88;4991475;28;20066;-70
2022/06/22 07:42:17;;;;;;;2.03;1.10;;;;;;;29.43;nan;100016.03;4991074;28;20096;-70
2022/06/22 07:44:43;;;;;;;1.83;1.20;;;;;;;29.07;nan;100006.63;4980118;28;20031;-70
2022/06/22 07:47:22;;;;;;;2.30;1.17;;;;;;;28.77;nan;100006.63;4990294;28;20121;-70
2022/06/22 07:50:16;;;;;;;2.70;1.38;;;;;;;28.51;nan;100008.72;4991231;28;20030;-70
2022/06/22 07:52:49;;;;;;;3.78;1.40;;;;;;;28.87;nan;100000.25;4978717;28;20038;-70
2022/06/22 07:55:19;;;;;;;2.47;1.20;;;;;;;29.33;nan;100001.72;4991394;28;20125;-70
2022/06/22 07:58:17;;;;;;;2.13;1.27;;;;;;;29.95;nan;99997.16;4990800;28;20045;-71
2022/06/22 08:00:47;;;;;;;3.00;1.02;;;;;;;30.77;nan;100000.56;4991198;28;20045;-70
2022/06/22 08:03:54;;;;;;;2.78;1.10;;;;;;;31.50;nan;100005.25;4989611;28;20038;-70
2022/06/22 08:06:25;;;;;;;3.15;1.30;;;;;;;32.36;nan;99995.44;4996032;28;20335;-70
2022/06/22 08:09:00;;;;;;;1.90;1.08;;;;;;;33.30;nan;100001.84;4985267;28;20057;-71
2022/06/22 08:11:34;;;;;;;3.38;1.50;;;;;;;33.79;nan;99999.88;4990548;28;20041;-71
2022/06/22 08:14:13;;;;;;;2.85;1.33;;;;;;;33.68;nan;99995.84;4990963;28;20031;-71
2022/06/22 08:16:44;;;;;;;2.22;1.00;;;;;;;33.95;nan;99999.44;4993273;28;20065;-71
2022/06/22 08:19:10;;;;;;;2.45;1.50;;;;;;;33.84;nan;100001.66;4995744;28;20442;-70
2022/06/22 08:21:43;;;;;;;2.17;1.25;;;;;;;33.16;nan;100007.44;4990804;28;20046;-71
2022/06/22 08:24:11;;;;;;;2.80;1.48;;;;;;;32.44;nan;100002.94;4972958;28;20026;-70
2022/06/22 08:26:37;;;;;;;2.10;1.38;;;;;;;31.80;nan;100015.84;4998935;28;20037;-70
2022/06/22 08:29:04;;;;;;;2.60;1.13;;;;;;;31.32;nan;100001.50;5004683;28;20034;-70
2022/06/22 08:31:36;;;;;;;4.60;1.77;;;;;;;30.80;nan;99992.59;4974560;28;20092;-70
2022/06/22 08:34:05;;;;;;;2.75;1.20;;;;;;;30.56;nan;99995.47;4989702;28;20030;-71
2022/06/22 08:36:40;;;;;;;4.75;1.50;;;;;;;30.37;nan;99992.75;4991976;28;20077;-70
2022/06/22 08:39:27;;;;;;;3.72;1.25;;;;;;;30.00;nan;99996.28;4996231;28;20481;-70
2022/06/22 08:42:11;;;;;;;3.20;1.63;;;;;;;29.82;nan;99993.25;4995322;28;20022;-70
2022/06/22 08:44:56;;;;;;;2.95;1.70;;;;;;;29.70;nan;99987.44;4998619;28;20503;-70
2022/06/22 08:47:34;;;;;;;3.83;1.52;;;;;;;29.60;nan;99990.22;4990351;28;20121;-70
2022/06/22 08:50:28;;;;;;;4.28;1.70;;;;;;;29.51;nan;99981.91;4996939;28;20084;-70
2022/06/22 08:53:16;;;;;;;3.63;1.67;;;;;;;29.64;nan;99975.72;4972635;28;20150;-70
2022/06/22 08:56:07;;;;;;;3.03;1.60;;;;;;;30.06;nan;99976.03;4989559;28;20122;-70
2022/06/22 08:58:57;;;;;;;4.45;2.25;;;;;;;30.25;nan;99987.75;4987524;28;20137;-70
2022/06/22 09:01:45;;;;;;;4.32;1.90;;;;;;;30.50;nan;99993.91;4989844;28;20297;-71
2022/06/22 09:04:42;;;;;;;3.55;1.77;;;;;;;30.75;nan;99994.59;4983536;28;20030;-70
2022/06/22 09:07:39;;;;;;;3.95;1.90;;;;;;;31.10;nan;99985.78;4985033;28;20038;-70
2022/06/22 09:10:32;;;;;;;3.50;1.80;;;;;;;31.26;nan;99991.75;4982498;28;20093;-70
2022/06/22 09:13:15;;;;;;;3.17;1.75;;;;;;;31.29;nan;99982.94;4992948;28;20058;-71
2022/06/22 09:16:10;;;;;;;3.63;1.80;;;;;;;31.21;nan;99985.59;4996453;28;20074;-70
2022/06/22 09:18:45;;;;;;;3.67;1.48;;;;;;;30.95;nan;99990.72;4992669;28;20062;-70
2022/06/22 09:21:43;;;;;;;2.00;1.23;;;;;;;30.74;nan;99985.59;4993468;28;20081;-70
2022/06/22 09:24:17;;;;;;;2.63;1.30;;;;;;;30.45;nan;99983.88;4999968;28;20141;-70
2022/06/22 09:26:55;;;;;;;2.40;1.00;;;;;;;30.18;nan;99979.13;4994039;28;20026;-70
2022/06/22 09:29:20;;;;;;;2.20;1.30;;;;;;;29.98;nan;99984.84;4990465;28;20034;-70
2022/06/22 09:32:02;;;;;;;1.80;1.20;;;;;;;29.85;nan;99984.47;4993744;28;20042;-70
2022/06/22 09:34:46;;;;;;;3.42;1.58;;;;;;;29.93;nan;99982.19;4993318;28;20267;-70
2022/06/22 09:37:30;;;;;;;1.80;0.90;;;;;;;30.02;nan;99983.97;5005145;28;20026;-70
2022/06/22 09:40:10;;;;;;;2.78;1.38;;;;;;;29.72;nan;99979.75;4986980;28;20038;-70
2022/06/22 09:42:44;;;;;;;1.98;1.17;;;;;;;29.46;nan;99981.16;4992605;28;20085;-70
2022/06/22 09:45:27;;;;;;;2.20;1.20;;;;;;;29.39;nan;99982.31;4999249;28;20039;-70
2022/06/22 09:48:04;;;;;;;1.50;0.90;;;;;;;29.46;nan;99987.41;4975471;28;20470;-70
2022/06/22 09:50:48;;;;;;;2.65;0.70;;;;;;;29.42;nan;99995.34;5000549;28;20038;-70
2022/06/22 09:53:37;;;;;;;1.35;1.00;;;;;;;29.26;nan;99991.19;4992771;28;20154;-70
2022/06/22 09:56:22;;;;;;;2.15;1.00;;;;;;;29.18;nan;99998.06;4986338;28;20137;-70
2022/06/22 09:59:00;;;;;;;1.83;0.80;;;;;;;29.15;nan;99997.81;4986641;28;20038;-70
2022/06/22 10:01:56;;;;;;;1.92;0.90;;;;;;;29.07;nan;99993.84;4989976;28;20497;-70
2022/06/22 10:04:58;;;;;;;2.42;0.80;;;;;;;28.91;nan;99993.16;4992254;28;20039;-70
2022/06/22 10:07:54;;;;;;;1.33;0.80;;;;;;;28.56;nan;99994.28;4974041;28;20501;-70
2022/06/22 10:10:25;;;;;;;3.42;1.17;;;;;;;28.33;nan;99990.34;4991218;28;20038;-70
2022/06/22 10:13:03;;;;;;;;;;;;;;;28.12;nan;99995.91;4993081;28;20134;-70
2022/06/22 10:15:58;;;;;;;4.75;1.42;;;;;;;27.88;nan;99998.50;4993665;28;20005;-70
2022/06/22 10:18:29;;;;;;;1.83;1.23;;;;;;;27.61;nan;100007.00;5001138;28;20038;-70
2022/06/22 10:21:00;;;;;;;1.55;1.00;;;;;;;27.50;nan;100006.22;5003146;28;20042;-70
2022/06/22 10:23:46;;;;;;;2.08;1.35;;;;;;;27.50;nan;100005.41;4994962;28;20041;-70
2022/06/22 10:26:21;;;;;;;3.33;1.27;;;;;;;27.52;nan;100003.25;4995073;28;20080;-70
2022/06/22 10:29:10;;;;;;;1.40;0.93;;;;;;;27.57;nan;100002.41;4999105;28;20027;-70
2022/06/22 10:31:58;;;;;;;1.70;1.10;;;;;;;27.64;nan;100005.66;4994545;28;20096;-70
2022/06/22 10:34:28;;;;;;;1.73;0.93;;;;;;;27.59;nan;100009.19;5010125;28;20038;-70
2022/06/22 10:36:57;;;;;;;1.35;0.77;;;;;;;27.66;nan;100009.72;5013176;28;20127;-70
2022/06/22 10:39:41;;;;;;;2.47;0.80;;;;;;;27.67;nan;100011.34;4995265;28;20463;-70
2022/06/22 10:45:21;;;;;;;1.92;0.80;;;;;;;28.10;nan;100017.13;4973478;28;20053;-70
2022/06/22 10:48:15;;;;;;;1.15;0.73;;;;;;;28.31;nan;100014.28;4992930;28;20037;-70
2022/06/22 10:50:49;;;;;;;1.83;0.90;;;;;;;28.47;nan;100015.81;4993408;28;20039;-70
2022/06/22 10:53:39;;;;;;;1.38;0.88;;;;;;;28.68;nan;100021.13;4994574;28;20046;-70
2022/06/22 10:56:13;;;;;;;4.50;1.35;;;;;;;28.71;nan;100018.63;4975350;28;20487;-70
2022/06/22 10:58:57;;;;;;;1.85;1.10;;;;;;;28.78;nan;100018.31;4978887;28;20038;-70
2022/06/22 11:01:33;;;;;;;3.03;1.30;;;;;;;28.84;nan;100022.63;4987184;28;20094;-70
2022/06/22 11:04:30;;;;;;;2.25;1.10;;;;;;;28.99;nan;100036.06;4991786;28;20034;-70
2022/06/22 11:07:33;;;;;;;3.45;1.40;;;;;;;28.99;nan;100033.34;4993110;28;20494;-70
2022/06/22 11:10:05;;;;;;;2.38;1.40;;;;;;;29.04;nan;100037.94;4972760;28;20047;-70
2022/06/22 11:12:44;;;;;;;4.13;1.50;;;;;;;29.06;nan;100034.94;4979313;28;20038;-70
2022/06/22 11:15:43;;;;;;;2.42;1.30;;;;;;;29.08;nan;100033.59;4991969;28;20471;-70
2022/06/22 11:18:42;;;;;;;2.33;1.30;;;;;;;29.09;nan;100040.63;4983640;28;20046;-70
2022/06/22 11:21:49;;;;;;;3.30;1.45;;;;;;;28.97;nan;100040.19;4972867;28;20059;-70
2022/06/22 11:24:39;;;;;;;2.53;1.48;;;;;;;29.02;nan;100040.94;4984491;28;20069;-70
2022/06/22 11:33:48;;;;;;;3.35;1.80;;;;;;;28.83;nan;100053.63;4991423;28;20061;-70
2022/06/22 11:36:22;;;;;;;4.32;2.25;;;;;;;28.59;nan;100062.53;4970655;28;20126;-70
2022/06/22 11:39:18;;;;;;;4.40;2.25;;;;;;;28.35;nan;100062.38;5011754;28;20040;-70
2022/06/22 11:42:07;;;;;;;4.20;2.08;;;;;;;28.16;nan;100054.06;4997728;28;20046;-70
2022/06/22 11:48:01;;;;;;;;;;;;;;;27.88;nan;100060.19;4983469;28;20579;-70
2022/06/22 11:50:43;;;;;;;4.25;1.80;;;;;;;27.87;nan;100064.00;4972408;28;19968;-70
2022/06/22 11:53:36;;;;;;;5.93;1.90;;;;;;;27.67;nan;100065.69;4973427;28;20090;-70
2022/06/22 11:56:12;;;;;;;2.88;1.73;;;;;;;27.48;nan;100061.91;4991764;28;20131;-70
2022/06/22 11:59:00;;;;;;;3.33;1.52;;;;;;;27.44;nan;100069.00;4990317;28;20129;-70
2022/06/22 12:01:49;;;;;;;3.17;1.70;;;;;;;27.37;nan;100071.19;4990997;28;20192;-70
2022/06/22 12:04:43;;;;;;;4.00;2.13;;;;;;;27.25;nan;100072.28;4986670;28;20101;-72
2022/06/22 12:07:26;;;;;;;5.90;1.98;;;;;;;27.20;nan;100063.34;4988865;28;20038;-70
2022/06/22 12:10:13;;;;;;;5.57;2.10;;;;;;;27.25;nan;100058.72;4971182;28;20043;-70
2022/06/22 12:12:39;;;;;;;3.72;1.88;;;;;;;27.35;nan;100059.78;4970915;28;20037;-69
2022/06/22 12:15:20;;;;;;;5.50;2.50;;;;;;;27.36;nan;100067.63;4991609;28;20113;-70
2022/06/22 12:18:05;;;;;;;4.45;1.90;;;;;;;27.35;nan;100062.50;4991000;28;20129;-70
2022/06/22 12:20:46;;;;;;;3.17;2.00;;;;;;;27.10;nan;100064.94;4991190;28;20092;-70
2022/06/22 12:23:21;;;;;;;4.90;2.10;;;;;;;26.96;nan;100057.59;4990167;28;20484;-70
2022/06/22 12:26:08;;;;;;;5.18;2.00;;;;;;;27.02;nan;100054.63;4989620;28;20046;-70
2022/06/22 12:28:39;;;;;;;5.57;1.73;;;;;;;27.20;nan;100050.56;4995136;28;20034;-71
2022/06/22 12:31:17;;;;;;;5.32;2.05;;;;;;;27.43;nan;100045.63;4979620;28;20035;-70
2022/06/22 12:33:50;;;;;;;3.38;1.90;;;;;;;27.57;nan;100043.97;4971142;28;20295;-70
2022/06/22 12:36:21;;;;;;;3.35;2.00;;;;;;;27.85;nan;100044.44;4970709;28;20375;-70
2022/06/22 12:38:51;;;;;;;3.80;1.92;;;;;;;28.25;nan;100034.44;4971192;28;20038;-70
2022/06/22 12:41:48;;;;;;;5.10;1.70;;;;;;;28.64;nan;100037.19;4971157;28;20100;-70
2022/06/22 12:44:22;;;;;;;3.00;1.70;;;;;;;28.81;nan;100039.50;4981131;28;20281;-70
2022/06/22 12:47:26;;;;;;;3.70;1.77;;;;;;;28.76;nan;100040.34;5002194;28;20585;-70
2022/06/22 12:50:05;;;;;;;4.38;1.88;;;;;;;29.18;nan;100043.56;4991360;28;20038;-70
2022/06/22 12:52:48;;;;;;;2.67;1.60;;;;;;;29.53;nan;100039.66;4990355;28;20087;-70
2022/06/22 12:55:42;;;;;;;5.10;1.80;;;;;;;29.89;nan;100035.69;4986613;28;20451;-70
2022/06/22 12:58:17;;;;;;;3.67;1.90;;;;;;;30.22;nan;100037.41;4988757;28;20136;-71
2022/06/22 13:00:44;;;;;;;3.30;1.80;;;;;;;30.59;nan;100033.06;4991490;28;20141;-70
2022/06/22 13:03:17;;;;;;;3.05;1.50;;;;;;;30.81;nan;100032.41;4991676;28;20038;-70
2022/06/22 13:05:42;;;;;;;2.40;1.52;;;;;;;30.85;nan;100019.81;4991799;28;20399;-70